createdAt,value
2018-12-08T13:03:27.154Z,6.70
2018-12-08T13:06:38.728Z,6.80
2018-12-08T13:10:53.640Z,6.80
2018-12-08T13:14:05.124Z,7.00
2018-12-08T13:17:16.129Z,7.00
2018-12-08T13:20:27.012Z,7.10
2018-12-08T13:23:38.847Z,7.00
2018-12-08T13:26:50.620Z,6.90
2018-12-08T13:30:16.652Z,7.10
2018-12-08T13:33:27.849Z,7.10
2018-12-08T13:36:38.998Z,7.10
2018-12-08T13:39:52.081Z,7.00
2018-12-08T13:43:03.766Z,6.80
2018-12-08T13:46:14.869Z,6.70
2018-12-08T13:49:26.550Z,6.50
2018-12-08T13:52:38.359Z,6.60
2018-12-08T13:55:50.484Z,6.50
2018-12-08T13:59:02.659Z,6.50
2018-12-08T14:02:15.476Z,6.50
2018-12-08T14:05:27.544Z,6.40
2018-12-08T14:08:39.958Z,6.40
2018-12-08T14:11:52.794Z,6.40
2018-12-08T14:15:04.901Z,6.40
2018-12-08T14:18:16.431Z,6.40
2018-12-08T14:21:27.874Z,6.40
2018-12-08T14:24:39.576Z,6.40
2018-12-08T14:27:50.982Z,6.30
2018-12-08T14:31:02.216Z,6.30
2018-12-08T14:34:15.710Z,6.30
2018-12-08T14:37:29.321Z,6.20
2018-12-08T14:40:40.221Z,6.20
2018-12-08T14:43:53.847Z,6.10
2018-12-08T15:01:55.445Z,5.80
2018-12-08T15:05:10.067Z,5.80
2018-12-08T15:08:21.838Z,5.80
2018-12-08T15:11:32.788Z,5.80
2018-12-08T15:14:45.397Z,5.80
2018-12-08T15:17:56.668Z,5.80
2018-12-08T15:21:09.110Z,5.70
2018-12-08T15:24:20.242Z,5.80
2018-12-08T15:27:31.267Z,5.80
2018-12-08T15:30:43.742Z,5.80
2018-12-08T15:33:54.975Z,5.80
2018-12-08T15:37:07.454Z,5.80
2018-12-08T15:40:19.783Z,5.90
2018-12-08T15:43:32.473Z,5.90
2018-12-08T15:46:44.361Z,5.90
2018-12-08T15:49:56.220Z,6.00
2018-12-08T15:53:07.677Z,6.00
2018-12-08T15:56:20.194Z,6.00
2018-12-08T15:59:34.651Z,5.90
2018-12-08T16:02:46.448Z,6.00
2018-12-08T16:05:58.577Z,5.90
2018-12-08T16:09:11.392Z,5.90
2018-12-08T16:12:23.053Z,5.90
2018-12-08T16:15:34.090Z,5.90
2018-12-08T16:18:45.986Z,5.90
2018-12-08T16:21:57.685Z,5.90
2018-12-08T16:25:09.319Z,5.90
2018-12-08T16:46:55.081Z,6.00
2018-12-08T16:50:08.964Z,6.00
2018-12-08T16:53:20.508Z,6.00
2018-12-08T16:56:33.284Z,6.00
2018-12-08T16:59:45.641Z,6.00
2018-12-08T17:06:40.236Z,5.90
2018-12-08T17:09:58.481Z,6.00
2018-12-08T17:13:11.721Z,6.00
2018-12-08T17:16:29.831Z,6.00
2018-12-08T17:19:42.457Z,5.90
2018-12-08T17:22:55.678Z,5.90
2018-12-08T17:26:11.009Z,5.90
2018-12-08T17:29:23.491Z,5.90
2018-12-08T17:32:37.570Z,6.00
2018-12-08T17:39:09.509Z,6.10
2018-12-08T17:42:42.899Z,6.10
2018-12-08T17:45:57.099Z,6.10
2018-12-08T17:49:09.096Z,6.10
2018-12-08T17:56:01.520Z,6.10
2018-12-08T17:59:14.304Z,6.10
2018-12-08T18:02:27.243Z,6.10
2018-12-08T18:05:38.602Z,6.10
2018-12-08T18:08:49.720Z,6.10
2018-12-08T18:12:01.636Z,6.10
2018-12-08T18:15:14.086Z,6.10
2018-12-08T18:18:26.101Z,6.20
2018-12-08T18:21:38.678Z,6.20
2018-12-08T18:24:50.824Z,6.20
2018-12-08T18:35:28.864Z,6.30
2018-12-08T19:45:28.462Z,6.00
2018-12-08T19:48:40.597Z,6.00
2018-12-08T19:51:53.426Z,6.00
2018-12-08T19:55:05.504Z,5.90
2018-12-08T19:58:17.015Z,5.90
2018-12-08T20:01:28.677Z,6.00
2018-12-08T20:04:40.376Z,6.00
2018-12-08T20:07:52.610Z,6.00
2018-12-08T20:11:03.650Z,6.00
2018-12-08T20:14:15.843Z,6.00
2018-12-08T20:17:28.736Z,6.00
2018-12-08T20:20:40.989Z,6.00
2018-12-08T20:23:53.760Z,6.00
2018-12-08T20:27:07.038Z,6.00
2018-12-08T20:30:19.384Z,6.00
2018-12-08T20:33:31.408Z,6.00
2018-12-08T20:36:43.536Z,6.00
2018-12-08T20:39:56.024Z,6.10
2018-12-08T20:43:08.670Z,6.10
2018-12-08T20:46:20.752Z,6.10
2018-12-08T20:49:33.592Z,6.20
2018-12-08T20:52:45.535Z,6.20
2018-12-08T20:55:57.530Z,6.20
2018-12-08T20:59:10.574Z,6.20
2018-12-08T21:02:23.632Z,6.30
2018-12-08T21:05:35.072Z,6.30
2018-12-08T21:08:46.234Z,6.40
2018-12-08T21:11:58.572Z,6.40
2018-12-08T21:15:11.697Z,6.40
2018-12-08T21:22:07.518Z,6.40
2018-12-08T21:25:19.771Z,6.40
2018-12-08T21:28:32.091Z,6.40
2018-12-08T21:31:44.560Z,6.40
2018-12-08T21:34:57.446Z,6.40
2018-12-08T21:38:09.502Z,6.40
2018-12-08T21:41:21.595Z,6.40
2018-12-08T21:44:33.549Z,6.40
2018-12-08T21:47:48.034Z,6.40
2018-12-08T21:51:00.721Z,6.40
2018-12-08T21:54:13.216Z,6.40
2018-12-08T21:57:26.079Z,6.40
2018-12-08T22:00:38.865Z,6.50
2018-12-08T22:03:51.714Z,6.50
2018-12-08T22:11:00.964Z,6.60
2018-12-08T22:22:01.355Z,6.60
2018-12-08T22:25:13.168Z,6.60
2018-12-08T22:32:07.643Z,6.70
2018-12-08T22:35:19.490Z,6.70
2018-12-08T22:38:30.817Z,6.70
2018-12-08T22:41:43.032Z,6.70
2018-12-08T22:44:54.993Z,6.70
